Time;durP1;ratioP1;P1;durP2;ratioP2;P2;SDS_P1;SDS_P2;PMS_P1;PMS_P2;Temp;Humidity;BMP_temperature;BMP_pressure;BME280_temperature;BME280_humidity;BME280_pressure;Samples;Min_cycle;Max_cycle;Signal;HPM_P1;HPM_P2
2020/04/12 00:00:56;;;;;;;7.7;5.400001;;;;;;;8.06;67.77832;95594.06;;;;
2020/04/12 00:01:56;;;;;;;7.7;5.400001;;;;;;;8.06;67.77832;95594.06;;;;
2020/04/12 00:02:57;;;;;;;7.1;5.45;;;;;;;8.03;67.8584;95584.67;;;;
2020/04/12 00:03:57;;;;;;;7.1;5.45;;;;;;;8.03;67.8584;95584.67;;;;
2020/04/12 00:04:58;;;;;;;7.1;5.3;;;;;;;7.99;68.03223;95591.13;;;;
2020/04/12 00:05:58;;;;;;;7.1;5.3;;;;;;;7.99;68.03223;95591.13;;;;
2020/04/12 00:06:59;;;;;;;7.1;5.3;;;;;;;7.99;68.03223;95591.13;;;;
2020/04/12 00:07:59;;;;;;;5.75;5.149999;;;;;;;7.95;68.12305;95591.11;;;;
2020/04/12 00:09:00;;;;;;;5.75;5.149999;;;;;;;7.95;68.12305;95591.11;;;;
2020/04/12 00:10:00;;;;;;;5.75;5.149999;;;;;;;7.95;68.12305;95591.11;;;;
2020/04/12 00:11:01;;;;;;;6.2;5.299999;;;;;;;7.91;68.29883;95583.18;;;;
2020/04/12 00:12:02;;;;;;;6.2;5.299999;;;;;;;7.91;68.29883;95583.18;;;;
2020/04/12 00:13:02;;;;;;;6.45;4.8;;;;;;;7.87;68.43164;95586.4;;;;
2020/04/12 00:14:02;;;;;;;6.45;4.8;;;;;;;7.87;68.43164;95586.4;;;;
2020/04/12 00:15:03;;;;;;;6.45;4.8;;;;;;;7.87;68.43164;95586.4;;;;
2020/04/12 00:16:03;;;;;;;5.55;5;;;;;;;7.85;68.65039;95585.88;;;;
2020/04/12 00:17:04;;;;;;;5.55;5;;;;;;;7.85;68.65039;95585.88;;;;
2020/04/12 00:18:05;;;;;;;7.45;5.199999;;;;;;;7.83;68.78613;95584.75;;;;
2020/04/12 00:19:05;;;;;;;7.45;5.199999;;;;;;;7.83;68.78613;95584.75;;;;
2020/04/12 00:20:06;;;;;;;7.45;5.199999;;;;;;;7.83;68.78613;95584.75;;;;
2020/04/12 00:21:06;;;;;;;6.1;4.849999;;;;;;;7.82;68.95508;95584.97;;;;
2020/04/12 00:22:07;;;;;;;6.1;4.849999;;;;;;;7.82;68.95508;95584.97;;;;
2020/04/12 00:23:07;;;;;;;6.1;4.849999;;;;;;;7.82;68.95508;95584.97;;;;
2020/04/12 00:24:08;;;;;;;6.7;5.15;;;;;;;7.8;69.03711;95576.7;;;;
2020/04/12 00:25:08;;;;;;;6.7;5.15;;;;;;;7.8;69.03711;95576.7;;;;
2020/04/12 00:26:09;;;;;;;6.1;5.5;;;;;;;7.77;69.19336;95579.28;;;;
2020/04/12 00:27:09;;;;;;;6.1;5.5;;;;;;;7.77;69.19336;95579.28;;;;
2020/04/12 00:28:09;;;;;;;6.1;5.5;;;;;;;7.77;69.19336;95579.28;;;;
2020/04/12 00:29:10;;;;;;;6.1;5.5;;;;;;;7.77;69.19336;95579.28;;;;
2020/04/12 00:30:10;;;;;;;6.1;5.5;;;;;;;7.77;69.19336;95579.28;;;;
2020/04/12 00:31:11;;;;;;;6.1;5.5;;;;;;;7.77;69.19336;95579.28;;;;
2020/04/12 00:32:11;;;;;;;6.1;5.5;;;;;;;7.77;69.19336;95579.28;;;;
2020/04/12 00:33:12;;;;;;;6.1;5.5;;;;;;;7.77;69.19336;95579.28;;;;
2020/04/12 00:34:12;;;;;;;6.1;5.5;;;;;;;7.77;69.19336;95579.28;;;;
2020/04/12 00:35:13;;;;;;;6.1;5.5;;;;;;;7.77;69.19336;95579.28;;;;
2020/04/12 00:36:13;;;;;;;6.1;5.5;;;;;;;7.77;69.19336;95579.28;;;;
2020/04/12 00:37:14;;;;;;;6;4.900001;;;;;;;7.29;67.66992;95562.24;;;;
2020/04/12 00:38:15;;;;;;;6;4.900001;;;;;;;7.29;67.66992;95562.24;;;;
2020/04/12 00:39:15;;;;;;;6.3;5.3;;;;;;;7.24;68.42676;95563.39;;;;
2020/04/12 00:40:16;;;;;;;6.3;5.3;;;;;;;7.24;68.42676;95563.39;;;;
2020/04/12 00:41:16;;;;;;;6.3;5.3;;;;;;;7.24;68.42676;95563.39;;;;
2020/04/12 00:42:16;;;;;;;7.2;4.800001;;;;;;;7.25;69.00293;95552.52;;;;
2020/04/12 00:43:17;;;;;;;7.2;4.800001;;;;;;;7.25;69.00293;95552.52;;;;
2020/04/12 00:44:17;;;;;;;7.2;4.800001;;;;;;;7.25;69.00293;95552.52;;;;
2020/04/12 00:45:18;;;;;;;6.599999;5.149999;;;;;;;7.27;69.48438;95553.14;;;;
2020/04/12 00:46:18;;;;;;;6.599999;5.149999;;;;;;;7.27;69.48438;95553.14;;;;
2020/04/12 00:47:18;;;;;;;5.199999;4.7;;;;;;;7.3;69.80859;95555.94;;;;
2020/04/12 00:48:19;;;;;;;5.199999;4.7;;;;;;;7.3;69.80859;95555.94;;;;
2020/04/12 00:49:19;;;;;;;5.199999;4.7;;;;;;;7.3;69.80859;95555.94;;;;
2020/04/12 00:50:20;;;;;;;5.55;5.000001;;;;;;;7.3;70.08496;95555.44;;;;
2020/04/12 00:51:20;;;;;;;5.55;5.000001;;;;;;;7.3;70.08496;95555.44;;;;
2020/04/12 00:52:21;;;;;;;5.55;5.000001;;;;;;;7.3;70.08496;95555.44;;;;
2020/04/12 00:53:22;;;;;;;5.55;5.000001;;;;;;;7.3;70.08496;95555.44;;;;
2020/04/12 00:54:22;;;;;;;5.55;5.000001;;;;;;;7.3;70.08496;95555.44;;;;
2020/04/12 00:55:22;;;;;;;5.55;5.000001;;;;;;;7.3;70.08496;95555.44;;;;
2020/04/12 00:56:23;;;;;;;5.55;5.000001;;;;;;;7.3;70.08496;95555.44;;;;
2020/04/12 00:57:23;;;;;;;5.55;5.000001;;;;;;;7.3;70.08496;95555.44;;;;
2020/04/12 00:58:24;;;;;;;5.55;5.000001;;;;;;;7.3;70.08496;95555.44;;;;
2020/04/12 00:59:24;;;;;;;5.55;5.000001;;;;;;;7.3;70.08496;95555.44;;;;
2020/04/12 01:00:25;;;;;;;5.900001;4.85;;;;;;;6.93;68.53809;95545.75;;;;
2020/04/12 01:01:25;;;;;;;5.900001;4.85;;;;;;;6.93;68.53809;95545.75;;;;
2020/04/12 01:02:26;;;;;;;5.900001;4.85;;;;;;;6.93;68.53809;95545.75;;;;
2020/04/12 01:03:28;;;;;;;7.5;5.400001;;;;;;;6.9;69.28809;95547.09;;;;
2020/04/12 01:04:28;;;;;;;7.5;5.400001;;;;;;;6.9;69.28809;95547.09;;;;
2020/04/12 01:05:28;;;;;;;7.5;5.400001;;;;;;;6.9;69.28809;95547.09;;;;
2020/04/12 01:06:29;;;;;;;6.4;5.5;;;;;;;6.94;69.88672;95543.9;;;;
2020/04/12 01:07:30;;;;;;;6.4;5.5;;;;;;;6.94;69.88672;95543.9;;;;
2020/04/12 01:08:30;;;;;;;6.55;5.1;;;;;;;6.98;70.4043;95546.06;;;;
2020/04/12 01:09:30;;;;;;;6.55;5.1;;;;;;;6.98;70.4043;95546.06;;;;
2020/04/12 01:10:31;;;;;;;6.55;5.1;;;;;;;6.98;70.4043;95546.06;;;;
2020/04/12 01:11:31;;;;;;;6.55;5.1;;;;;;;6.98;70.4043;95546.06;;;;
2020/04/12 01:12:32;;;;;;;6.55;5.1;;;;;;;6.98;70.4043;95546.06;;;;
2020/04/12 01:13:32;;;;;;;6.55;5.1;;;;;;;6.98;70.4043;95546.06;;;;
2020/04/12 01:14:33;;;;;;;6.55;5.1;;;;;;;6.98;70.4043;95546.06;;;;
2020/04/12 01:15:34;;;;;;;6.55;5.1;;;;;;;6.98;70.4043;95546.06;;;;
2020/04/12 01:16:36;;;;;;;6.55;5.1;;;;;;;6.98;70.4043;95546.06;;;;
2020/04/12 01:17:36;;;;;;;6.55;5.1;;;;;;;6.98;70.4043;95546.06;;;;
2020/04/12 01:18:37;;;;;;;6.55;5.1;;;;;;;6.98;70.4043;95546.06;;;;
2020/04/12 01:19:37;;;;;;;6;4.65;;;;;;;6.7;69.00098;95532.34;;;;
2020/04/12 01:20:38;;;;;;;6;4.65;;;;;;;6.7;69.00098;95532.34;;;;
2020/04/12 01:21:38;;;;;;;5.55;5.05;;;;;;;6.71;69.85059;95532.75;;;;
2020/04/12 01:22:43;;;;;;;5.55;5.05;;;;;;;6.71;69.85059;95532.75;;;;
2020/04/12 01:23:44;;;;;;;5.55;5.05;;;;;;;6.71;69.85059;95532.75;;;;
2020/04/12 01:24:45;;;;;;;5.55;5.05;;;;;;;6.71;69.85059;95532.75;;;;
2020/04/12 01:25:45;;;;;;;5.55;5.05;;;;;;;6.71;69.85059;95532.75;;;;
2020/04/12 01:26:46;;;;;;;5.55;5.05;;;;;;;6.71;69.85059;95532.75;;;;
2020/04/12 01:27:47;;;;;;;5.55;5.05;;;;;;;6.71;69.85059;95532.75;;;;
2020/04/12 01:28:47;;;;;;;5.55;5.05;;;;;;;6.71;69.85059;95532.75;;;;
2020/04/12 01:29:48;;;;;;;5.55;5.05;;;;;;;6.71;69.85059;95532.75;;;;
2020/04/12 01:30:49;;;;;;;5.55;5.05;;;;;;;6.71;69.85059;95532.75;;;;
2020/04/12 01:31:59;;;;;;;5.55;5.05;;;;;;;6.71;69.85059;95532.75;;;;
2020/04/12 01:33:07;;;;;;;6.199999;5.299999;;;;;;;6.56;68.79785;95528;;;;
2020/04/12 01:34:10;;;;;;;6.199999;5.299999;;;;;;;6.56;68.79785;95528;;;;
2020/04/12 01:35:14;;;;;;;6.2;5.349999;;;;;;;6.59;69.85352;95524.06;;;;
2020/04/12 01:36:15;;;;;;;6.2;5.349999;;;;;;;6.59;69.85352;95524.06;;;;
2020/04/12 01:37:15;;;;;;;6.2;5.349999;;;;;;;6.59;69.85352;95524.06;;;;
2020/04/12 01:38:16;;;;;;;5.8;5.3;;;;;;;6.68;70.69531;95530.88;;;;
2020/04/12 01:39:16;;;;;;;5.8;5.3;;;;;;;6.68;70.69531;95530.88;;;;
2020/04/12 01:40:17;;;;;;;6.4;5.8;;;;;;;6.75;71.42969;95525.83;;;;
2020/04/12 01:41:17;;;;;;;6.4;5.8;;;;;;;6.75;71.42969;95525.83;;;;
2020/04/12 01:42:17;;;;;;;6.4;5.8;;;;;;;6.75;71.42969;95525.83;;;;
2020/04/12 01:43:18;;;;;;;6.4;5.8;;;;;;;6.75;71.42969;95525.83;;;;
2020/04/12 01:44:18;;;;;;;6.4;5.8;;;;;;;6.75;71.42969;95525.83;;;;
2020/04/12 01:45:20;;;;;;;6.4;5.8;;;;;;;6.75;71.42969;95525.83;;;;
2020/04/12 01:46:20;;;;;;;6.4;5.8;;;;;;;6.75;71.42969;95525.83;;;;
2020/04/12 01:47:22;;;;;;;6.4;5.8;;;;;;;6.75;71.42969;95525.83;;;;
2020/04/12 01:48:22;;;;;;;6.4;5.8;;;;;;;6.75;71.42969;95525.83;;;;
2020/04/12 01:49:23;;;;;;;6.4;5.8;;;;;;;6.75;71.42969;95525.83;;;;
2020/04/12 01:50:23;;;;;;;6.4;5.8;;;;;;;6.75;71.42969;95525.83;;;;
2020/04/12 01:51:24;;;;;;;6.800001;5.649999;;;;;;;6.61;69.9502;95521.59;;;;
2020/04/12 01:52:24;;;;;;;6.800001;5.649999;;;;;;;6.61;69.9502;95521.59;;;;
2020/04/12 01:53:25;;;;;;;7.75;6.3;;;;;;;6.63;70.9834;95519.53;;;;
2020/04/12 01:54:25;;;;;;;7.75;6.3;;;;;;;6.63;70.9834;95519.53;;;;
2020/04/12 01:55:26;;;;;;;7.75;6.3;;;;;;;6.63;70.9834;95519.53;;;;
2020/04/12 01:56:27;;;;;;;7.75;6.3;;;;;;;6.63;70.9834;95519.53;;;;
2020/04/12 01:57:27;;;;;;;7.75;6.3;;;;;;;6.63;70.9834;95519.53;;;;
2020/04/12 01:58:28;;;;;;;7.75;6.3;;;;;;;6.63;70.9834;95519.53;;;;
2020/04/12 01:59:28;;;;;;;7.75;6.3;;;;;;;6.63;70.9834;95519.53;;;;
2020/04/12 02:00:28;;;;;;;7.75;6.3;;;;;;;6.63;70.9834;95519.53;;;;
2020/04/12 02:01:29;;;;;;;7.75;6.3;;;;;;;6.63;70.9834;95519.53;;;;
2020/04/12 02:02:29;;;;;;;7.75;6.3;;;;;;;6.63;70.9834;95519.53;;;;
2020/04/12 02:03:30;;;;;;;7.75;6.3;;;;;;;6.63;70.9834;95519.53;;;;
2020/04/12 02:04:30;;;;;;;7.199999;5.95;;;;;;;6.53;69.88574;95526.62;;;;
2020/04/12 02:05:31;;;;;;;7.199999;5.95;;;;;;;6.53;69.88574;95526.62;;;;
2020/04/12 02:06:31;;;;;;;6.649999;5.95;;;;;;;6.56;71.04883;95526.25;;;;
2020/04/12 02:07:32;;;;;;;6.649999;5.95;;;;;;;6.56;71.04883;95526.25;;;;
2020/04/12 02:08:33;;;;;;;6.649999;5.95;;;;;;;6.56;71.04883;95526.25;;;;
2020/04/12 02:09:34;;;;;;;6.95;6.2;;;;;;;6.64;71.90918;95519.31;;;;
2020/04/12 02:10:34;;;;;;;6.95;6.2;;;;;;;6.64;71.90918;95519.31;;;;
2020/04/12 02:11:35;;;;;;;6.95;6.2;;;;;;;6.64;71.90918;95519.31;;;;
2020/04/12 02:12:35;;;;;;;6.35;5.750001;;;;;;;6.71;72.70605;95511.29;;;;
2020/04/12 02:13:36;;;;;;;6.35;5.750001;;;;;;;6.71;72.70605;95511.29;;;;
2020/04/12 02:14:36;;;;;;;6.35;5.750001;;;;;;;6.71;72.70605;95511.29;;;;
2020/04/12 02:15:37;;;;;;;6.35;5.750001;;;;;;;6.71;72.70605;95511.29;;;;
2020/04/12 02:16:37;;;;;;;6.35;5.750001;;;;;;;6.71;72.70605;95511.29;;;;
2020/04/12 02:17:38;;;;;;;6.35;5.750001;;;;;;;6.71;72.70605;95511.29;;;;
2020/04/12 02:18:38;;;;;;;6.35;5.750001;;;;;;;6.71;72.70605;95511.29;;;;
2020/04/12 02:19:39;;;;;;;6.35;5.750001;;;;;;;6.71;72.70605;95511.29;;;;
2020/04/12 02:20:39;;;;;;;6.35;5.750001;;;;;;;6.71;72.70605;95511.29;;;;
2020/04/12 02:21:40;;;;;;;6.35;5.750001;;;;;;;6.71;72.70605;95511.29;;;;
2020/04/12 02:22:40;;;;;;;9.25;6;;;;;;;6.56;71.22852;95506.55;;;;
2020/04/12 02:23:41;;;;;;;9.25;6;;;;;;;6.56;71.22852;95506.55;;;;
2020/04/12 02:24:41;;;;;;;9.25;6;;;;;;;6.56;71.22852;95506.55;;;;
2020/04/12 02:25:41;;;;;;;7.25;6;;;;;;;6.6;72.31543;95501.59;;;;
2020/04/12 02:26:42;;;;;;;7.25;6;;;;;;;6.6;72.31543;95501.59;;;;
2020/04/12 02:27:42;;;;;;;7.25;6;;;;;;;6.6;72.31543;95501.59;;;;
2020/04/12 02:28:43;;;;;;;7.25;6;;;;;;;6.6;72.31543;95501.59;;;;
2020/04/12 02:29:43;;;;;;;7.25;6;;;;;;;6.6;72.31543;95501.59;;;;
2020/04/12 02:30:44;;;;;;;7.25;6;;;;;;;6.6;72.31543;95501.59;;;;
2020/04/12 02:31:45;;;;;;;7.25;6;;;;;;;6.6;72.31543;95501.59;;;;
2020/04/12 02:32:45;;;;;;;7.25;6;;;;;;;6.6;72.31543;95501.59;;;;
2020/04/12 02:33:45;;;;;;;7.25;6;;;;;;;6.6;72.31543;95501.59;;;;
2020/04/12 02:34:46;;;;;;;7.25;6;;;;;;;6.6;72.31543;95501.59;;;;
2020/04/12 02:35:47;;;;;;;6.9;6;;;;;;;6.62;71.2168;95506.23;;;;
2020/04/12 02:36:47;;;;;;;6.9;6;;;;;;;6.62;71.2168;95506.23;;;;
2020/04/12 02:37:48;;;;;;;6.9;6;;;;;;;6.62;71.2168;95506.23;;;;
2020/04/12 02:38:48;;;;;;;6.950001;6.249999;;;;;;;6.67;72.27539;95500.66;;;;
2020/04/12 02:39:49;;;;;;;6.950001;6.249999;;;;;;;6.67;72.27539;95500.66;;;;
2020/04/12 02:40:49;;;;;;;6.950001;6.249999;;;;;;;6.67;72.27539;95500.66;;;;
2020/04/12 02:41:50;;;;;;;6.950001;6.249999;;;;;;;6.67;72.27539;95500.66;;;;
2020/04/12 02:42:51;;;;;;;6.950001;6.249999;;;;;;;6.67;72.27539;95500.66;;;;
2020/04/12 02:43:51;;;;;;;6.950001;6.249999;;;;;;;6.67;72.27539;95500.66;;;;
2020/04/12 02:46:02;;;;;;;6.950001;6.249999;;;;;;;6.67;72.27539;95500.66;;;;
2020/04/12 02:47:10;;;;;;;6.950001;6.249999;;;;;;;6.67;72.27539;95500.66;;;;
2020/04/12 02:48:16;;;;;;;6.950001;6.249999;;;;;;;6.67;72.27539;95500.66;;;;
2020/04/12 02:49:16;;;;;;;8.049999;6.15;;;;;;;6.66;71.13965;95496.21;;;;
2020/04/12 02:50:17;;;;;;;8.049999;6.15;;;;;;;6.66;71.13965;95496.21;;;;
2020/04/12 02:51:17;;;;;;;8.049999;6.15;;;;;;;6.66;71.13965;95496.21;;;;
2020/04/12 02:52:18;;;;;;;6.75;6.149999;;;;;;;6.71;72.3252;95495.07;;;;
2020/04/12 02:53:18;;;;;;;6.75;6.149999;;;;;;;6.71;72.3252;95495.07;;;;
2020/04/12 02:54:19;;;;;;;6.75;6.149999;;;;;;;6.71;72.3252;95495.07;;;;
2020/04/12 02:55:19;;;;;;;6.75;6.149999;;;;;;;6.71;72.3252;95495.07;;;;
2020/04/12 02:56:20;;;;;;;6.75;6.149999;;;;;;;6.71;72.3252;95495.07;;;;
2020/04/12 02:57:20;;;;;;;6.75;6.149999;;;;;;;6.71;72.3252;95495.07;;;;
2020/04/12 02:58:21;;;;;;;6.75;6.149999;;;;;;;6.71;72.3252;95495.07;;;;
2020/04/12 02:59:21;;;;;;;6.75;6.149999;;;;;;;6.71;72.3252;95495.07;;;;
2020/04/12 03:00:22;;;;;;;6.75;6.149999;;;;;;;6.71;72.3252;95495.07;;;;
2020/04/12 03:01:22;;;;;;;6.75;6.149999;;;;;;;6.71;72.3252;95495.07;;;;
2020/04/12 03:02:23;;;;;;;6.700001;6.099999;;;;;;;6.73;71.23535;95488.16;;;;
2020/04/12 03:03:24;;;;;;;6.700001;6.099999;;;;;;;6.73;71.23535;95488.16;;;;
2020/04/12 03:04:24;;;;;;;6.700001;6.099999;;;;;;;6.73;71.23535;95488.16;;;;
2020/04/12 03:05:25;;;;;;;6.8;6.199999;;;;;;;6.8;72.39258;95475.97;;;;
2020/04/12 03:06:25;;;;;;;6.8;6.199999;;;;;;;6.8;72.39258;95475.97;;;;
2020/04/12 03:07:26;;;;;;;6.8;6.199999;;;;;;;6.8;72.39258;95475.97;;;;
2020/04/12 03:08:26;;;;;;;6.8;6.199999;;;;;;;6.8;72.39258;95475.97;;;;
2020/04/12 03:09:27;;;;;;;6.8;6.199999;;;;;;;6.8;72.39258;95475.97;;;;
2020/04/12 03:10:27;;;;;;;6.8;6.199999;;;;;;;6.8;72.39258;95475.97;;;;
2020/04/12 03:11:27;;;;;;;6.8;6.199999;;;;;;;6.8;72.39258;95475.97;;;;
2020/04/12 03:12:28;;;;;;;6.8;6.199999;;;;;;;6.8;72.39258;95475.97;;;;
2020/04/12 03:13:28;;;;;;;6.8;6.199999;;;;;;;6.8;72.39258;95475.97;;;;
2020/04/12 03:14:29;;;;;;;6.8;6.199999;;;;;;;6.8;72.39258;95475.97;;;;
2020/04/12 03:15:29;;;;;;;6.700001;6;;;;;;;6.87;71.375;95469.15;;;;
2020/04/12 03:16:30;;;;;;;6.700001;6;;;;;;;6.87;71.375;95469.15;;;;
2020/04/12 03:17:31;;;;;;;6.700001;6;;;;;;;6.87;71.375;95469.15;;;;
2020/04/12 03:18:31;;;;;;;8;6.2;;;;;;;6.94;72.39551;95462.45;;;;
2020/04/12 03:19:32;;;;;;;8;6.2;;;;;;;6.94;72.39551;95462.45;;;;
2020/04/12 03:20:32;;;;;;;8;6.2;;;;;;;6.94;72.39551;95462.45;;;;
2020/04/12 03:21:33;;;;;;;8;6.2;;;;;;;6.94;72.39551;95462.45;;;;
2020/04/12 03:22:33;;;;;;;8;6.2;;;;;;;6.94;72.39551;95462.45;;;;
2020/04/12 03:23:34;;;;;;;8;6.2;;;;;;;6.94;72.39551;95462.45;;;;
2020/04/12 03:24:34;;;;;;;8;6.2;;;;;;;6.94;72.39551;95462.45;;;;
2020/04/12 03:25:35;;;;;;;8;6.2;;;;;;;6.94;72.39551;95462.45;;;;
2020/04/12 03:26:35;;;;;;;8;6.2;;;;;;;6.94;72.39551;95462.45;;;;
2020/04/12 03:27:36;;;;;;;8;6.2;;;;;;;6.94;72.39551;95462.45;;;;
2020/04/12 03:28:36;;;;;;;7.999999;6.649999;;;;;;;6.95;71.30273;95466.77;;;;
2020/04/12 03:29:37;;;;;;;7.999999;6.649999;;;;;;;6.95;71.30273;95466.77;;;;
2020/04/12 03:34:43;;;;;;;7.95;6.5;;;;;;;6.99;72.62598;95462.22;;;;
2020/04/12 03:35:44;;;;;;;7.95;6.5;;;;;;;6.99;72.62598;95462.22;;;;
2020/04/12 03:36:44;;;;;;;7.95;6.5;;;;;;;6.99;72.62598;95462.22;;;;
2020/04/12 03:37:45;;;;;;;7.95;6.5;;;;;;;6.99;72.62598;95462.22;;;;
2020/04/12 03:38:46;;;;;;;7.95;6.5;;;;;;;6.99;72.62598;95462.22;;;;
2020/04/12 03:39:47;;;;;;;7.95;6.5;;;;;;;6.99;72.62598;95462.22;;;;
2020/04/12 03:40:47;;;;;;;7.95;6.5;;;;;;;6.99;72.62598;95462.22;;;;
2020/04/12 03:41:48;;;;;;;8.849999;7.9;;;;;;;6.96;71.55957;95457.28;;;;
2020/04/12 03:42:48;;;;;;;8.849999;7.9;;;;;;;6.96;71.55957;95457.28;;;;
2020/04/12 03:43:48;;;;;;;8.849999;7.9;;;;;;;6.96;71.55957;95457.28;;;;
2020/04/12 03:44:49;;;;;;;9.099998;7.6;;;;;;;7.02;72.65234;95457.35;;;;
2020/04/12 03:45:49;;;;;;;9.099998;7.6;;;;;;;7.02;72.65234;95457.35;;;;
2020/04/12 03:46:50;;;;;;;9.099998;7.6;;;;;;;7.02;72.65234;95457.35;;;;
2020/04/12 03:47:50;;;;;;;9.099998;7.6;;;;;;;7.02;72.65234;95457.35;;;;
2020/04/12 03:48:51;;;;;;;9.099998;7.6;;;;;;;7.02;72.65234;95457.35;;;;
2020/04/12 03:49:51;;;;;;;9.099998;7.6;;;;;;;7.02;72.65234;95457.35;;;;
2020/04/12 03:50:51;;;;;;;9.099998;7.6;;;;;;;7.02;72.65234;95457.35;;;;
2020/04/12 03:51:52;;;;;;;9.099998;7.6;;;;;;;7.02;72.65234;95457.35;;;;
2020/04/12 03:52:52;;;;;;;9.099998;7.6;;;;;;;7.02;72.65234;95457.35;;;;
2020/04/12 03:53:53;;;;;;;9.099998;7.6;;;;;;;7.02;72.65234;95457.35;;;;
2020/04/12 03:54:54;;;;;;;8.75;7.250001;;;;;;;7.01;71.67383;95460.58;;;;
2020/04/12 03:55:55;;;;;;;8.75;7.250001;;;;;;;7.01;71.67383;95460.58;;;;
2020/04/12 03:56:55;;;;;;;8.75;7.250001;;;;;;;7.01;71.67383;95460.58;;;;
2020/04/12 03:57:56;;;;;;;7.9;6.9;;;;;;;7.05;72.7627;95463.67;;;;
2020/04/12 03:58:56;;;;;;;7.9;6.9;;;;;;;7.05;72.7627;95463.67;;;;
2020/04/12 03:59:57;;;;;;;7.9;6.9;;;;;;;7.05;72.7627;95463.67;;;;
2020/04/12 04:00:57;;;;;;;7.9;6.9;;;;;;;7.05;72.7627;95463.67;;;;
2020/04/12 04:01:58;;;;;;;7.9;6.9;;;;;;;7.05;72.7627;95463.67;;;;
2020/04/12 04:02:58;;;;;;;7.9;6.9;;;;;;;7.05;72.7627;95463.67;;;;
2020/04/12 04:03:59;;;;;;;7.9;6.9;;;;;;;7.05;72.7627;95463.67;;;;
2020/04/12 04:04:59;;;;;;;7.9;6.9;;;;;;;7.05;72.7627;95463.67;;;;
2020/04/12 04:06:00;;;;;;;7.9;6.9;;;;;;;7.05;72.7627;95463.67;;;;
2020/04/12 04:07:00;;;;;;;7.9;6.9;;;;;;;7.05;72.7627;95463.67;;;;
2020/04/12 04:08:01;;;;;;;7.9;6.9;;;;;;;7.05;72.7627;95463.67;;;;
2020/04/12 04:09:01;;;;;;;8.950001;7.55;;;;;;;7;71.91797;95455.3;;;;
2020/04/12 04:10:03;;;;;;;8.950001;7.55;;;;;;;7;71.91797;95455.3;;;;
2020/04/12 04:11:03;;;;;;;8.950001;7.55;;;;;;;7;71.91797;95455.3;;;;
2020/04/12 04:12:04;;;;;;;8.950001;7.55;;;;;;;7;71.91797;95455.3;;;;
2020/04/12 04:13:04;;;;;;;8.950001;7.55;;;;;;;7;71.91797;95455.3;;;;
2020/04/12 04:14:05;;;;;;;8.950001;7.55;;;;;;;7;71.91797;95455.3;;;;
2020/04/12 04:15:05;;;;;;;8.950001;7.55;;;;;;;7;71.91797;95455.3;;;;
2020/04/12 04:16:06;;;;;;;8.950001;7.55;;;;;;;7;71.91797;95455.3;;;;
2020/04/12 04:17:06;;;;;;;8.950001;7.55;;;;;;;7;71.91797;95455.3;;;;
2020/04/12 04:18:07;;;;;;;8.950001;7.55;;;;;;;7;71.91797;95455.3;;;;
2020/04/12 04:19:07;;;;;;;8.700001;7.799999;;;;;;;7.07;71.53418;95456.23;;;;
2020/04/12 04:20:08;;;;;;;8.700001;7.799999;;;;;;;7.07;71.53418;95456.23;;;;
2020/04/12 04:21:09;;;;;;;8.700001;7.799999;;;;;;;7.07;71.53418;95456.23;;;;
2020/04/12 04:22:09;;;;;;;8.700001;7.799999;;;;;;;7.07;71.53418;95456.23;;;;
2020/04/12 04:23:09;;;;;;;8.700001;7.799999;;;;;;;7.07;71.53418;95456.23;;;;
2020/04/12 04:24:10;;;;;;;8.700001;7.799999;;;;;;;7.07;71.53418;95456.23;;;;
2020/04/12 04:25:11;;;;;;;8.700001;7.799999;;;;;;;7.07;71.53418;95456.23;;;;
2020/04/12 04:26:13;;;;;;;8.700001;7.799999;;;;;;;7.07;71.53418;95456.23;;;;
2020/04/12 04:27:14;;;;;;;8.700001;7.799999;;;;;;;7.07;71.53418;95456.23;;;;
2020/04/12 04:28:15;;;;;;;8.700001;7.799999;;;;;;;7.07;71.53418;95456.23;;;;
2020/04/12 04:29:16;;;;;;;8.700001;7.799999;;;;;;;7.07;71.53418;95456.23;;;;
2020/04/12 04:30:16;;;;;;;8.95;6.35;;;;;;;7.14;71.06836;95446.3;;;;
2020/04/12 04:31:17;;;;;;;8.95;6.35;;;;;;;7.14;71.06836;95446.3;;;;
2020/04/12 04:32:17;;;;;;;8.95;6.35;;;;;;;7.14;71.06836;95446.3;;;;
2020/04/12 04:33:17;;;;;;;8.95;6.35;;;;;;;7.14;71.06836;95446.3;;;;
2020/04/12 04:34:18;;;;;;;8.95;6.35;;;;;;;7.14;71.06836;95446.3;;;;
2020/04/12 04:35:18;;;;;;;8.95;6.35;;;;;;;7.14;71.06836;95446.3;;;;
2020/04/12 04:36:19;;;;;;;8.95;6.35;;;;;;;7.14;71.06836;95446.3;;;;
2020/04/12 04:37:19;;;;;;;8.95;6.35;;;;;;;7.14;71.06836;95446.3;;;;
2020/04/12 04:38:20;;;;;;;8.95;6.35;;;;;;;7.14;71.06836;95446.3;;;;
2020/04/12 04:39:20;;;;;;;8.95;6.35;;;;;;;7.14;71.06836;95446.3;;;;
2020/04/12 04:40:21;;;;;;;7.85;6.45;;;;;;;7.29;70.7959;95446.34;;;;
2020/04/12 04:41:21;;;;;;;7.85;6.45;;;;;;;7.29;70.7959;95446.34;;;;
2020/04/12 04:42:21;;;;;;;7.85;6.45;;;;;;;7.29;70.7959;95446.34;;;;
2020/04/12 04:43:22;;;;;;;7.85;6.45;;;;;;;7.29;70.7959;95446.34;;;;
2020/04/12 04:44:22;;;;;;;7.85;6.45;;;;;;;7.29;70.7959;95446.34;;;;
2020/04/12 04:45:23;;;;;;;7.85;6.45;;;;;;;7.29;70.7959;95446.34;;;;
2020/04/12 04:46:23;;;;;;;7.85;6.45;;;;;;;7.29;70.7959;95446.34;;;;
2020/04/12 04:47:23;;;;;;;7.85;6.45;;;;;;;7.29;70.7959;95446.34;;;;
2020/04/12 04:48:24;;;;;;;7.85;6.45;;;;;;;7.29;70.7959;95446.34;;;;
2020/04/12 04:49:24;;;;;;;7.85;6.45;;;;;;;7.29;70.7959;95446.34;;;;
2020/04/12 04:50:25;;;;;;;7.85;6.45;;;;;;;7.29;70.7959;95446.34;;;;
2020/04/12 04:51:25;;;;;;;11;6.750001;;;;;;;7.52;70.4834;95447.6;;;;
2020/04/12 04:52:26;;;;;;;11;6.750001;;;;;;;7.52;70.4834;95447.6;;;;
2020/04/12 04:53:26;;;;;;;8.250001;6.950001;;;;;;;7.65;71.38574;95447.13;;;;
2020/04/12 04:54:27;;;;;;;8.250001;6.950001;;;;;;;7.65;71.38574;95447.13;;;;
2020/04/12 04:55:27;;;;;;;8.250001;6.950001;;;;;;;7.65;71.38574;95447.13;;;;
2020/04/12 04:56:28;;;;;;;8.250001;6.950001;;;;;;;7.65;71.38574;95447.13;;;;
2020/04/12 04:57:28;;;;;;;8.250001;6.950001;;;;;;;7.65;71.38574;95447.13;;;;
2020/04/12 04:58:28;;;;;;;8.250001;6.950001;;;;;;;7.65;71.38574;95447.13;;;;
2020/04/12 04:59:29;;;;;;;8.250001;6.950001;;;;;;;7.65;71.38574;95447.13;;;;
2020/04/12 05:01:35;;;;;;;8.250001;6.950001;;;;;;;7.65;71.38574;95447.13;;;;
2020/04/12 05:02:35;;;;;;;8.250001;6.950001;;;;;;;7.65;71.38574;95447.13;;;;
2020/04/12 05:03:36;;;;;;;8.250001;6.950001;;;;;;;7.65;71.38574;95447.13;;;;
2020/04/12 05:04:36;;;;;;;7.05;5.849999;;;;;;;7.88;70.41211;95454.14;;;;
2020/04/12 05:05:37;;;;;;;7.05;5.849999;;;;;;;7.88;70.41211;95454.14;;;;
2020/04/12 05:06:37;;;;;;;6.849999;6.149999;;;;;;;7.99;71.2168;95452.66;;;;
2020/04/12 05:07:38;;;;;;;6.849999;6.149999;;;;;;;7.99;71.2168;95452.66;;;;
2020/04/12 05:08:38;;;;;;;6.849999;6.149999;;;;;;;7.99;71.2168;95452.66;;;;
2020/04/12 05:09:38;;;;;;;6.849999;6.149999;;;;;;;7.99;71.2168;95452.66;;;;
2020/04/12 05:10:39;;;;;;;6.849999;6.149999;;;;;;;7.99;71.2168;95452.66;;;;
2020/04/12 05:11:39;;;;;;;6.849999;6.149999;;;;;;;7.99;71.2168;95452.66;;;;
2020/04/12 05:12:40;;;;;;;6.849999;6.149999;;;;;;;7.99;71.2168;95452.66;;;;
2020/04/12 05:13:40;;;;;;;6.849999;6.149999;;;;;;;7.99;71.2168;95452.66;;;;
2020/04/12 05:14:41;;;;;;;6.849999;6.149999;;;;;;;7.99;71.2168;95452.66;;;;
2020/04/12 05:15:41;;;;;;;6.849999;6.149999;;;;;;;7.99;71.2168;95452.66;;;;
2020/04/12 05:16:42;;;;;;;6.849999;6.149999;;;;;;;7.99;71.2168;95452.66;;;;
2020/04/12 05:17:42;;;;;;;6.9;6.2;;;;;;;8.13;70.1748;95452.87;;;;
2020/04/12 05:18:43;;;;;;;6.9;6.2;;;;;;;8.13;70.1748;95452.87;;;;
2020/04/12 05:19:43;;;;;;;6.9;6.2;;;;;;;8.13;70.1748;95452.87;;;;
2020/04/12 05:20:44;;;;;;;6.9;6.2;;;;;;;8.13;70.1748;95452.87;;;;
2020/04/12 05:21:44;;;;;;;6.9;6.2;;;;;;;8.13;70.1748;95452.87;;;;
2020/04/12 05:22:45;;;;;;;6.9;6.2;;;;;;;8.13;70.1748;95452.87;;;;
2020/04/12 05:23:45;;;;;;;6.9;6.2;;;;;;;8.13;70.1748;95452.87;;;;
2020/04/12 05:24:45;;;;;;;6.9;6.2;;;;;;;8.13;70.1748;95452.87;;;;
2020/04/12 05:25:46;;;;;;;6.9;6.2;;;;;;;8.13;70.1748;95452.87;;;;
2020/04/12 05:26:46;;;;;;;6.9;6.2;;;;;;;8.13;70.1748;95452.87;;;;
2020/04/12 05:27:47;;;;;;;6.4;5.8;;;;;;;8.39;69.65332;95451.78;;;;
2020/04/12 05:28:47;;;;;;;6.4;5.8;;;;;;;8.39;69.65332;95451.78;;;;
2020/04/12 05:29:48;;;;;;;6.4;5.8;;;;;;;8.39;69.65332;95451.78;;;;
2020/04/12 05:30:48;;;;;;;6.4;5.8;;;;;;;8.39;69.65332;95451.78;;;;
2020/04/12 05:31:48;;;;;;;6.4;5.8;;;;;;;8.39;69.65332;95451.78;;;;
2020/04/12 05:32:49;;;;;;;6.4;5.8;;;;;;;8.39;69.65332;95451.78;;;;
2020/04/12 05:33:49;;;;;;;6.4;5.8;;;;;;;8.39;69.65332;95451.78;;;;
2020/04/12 05:34:50;;;;;;;6.4;5.8;;;;;;;8.39;69.65332;95451.78;;;;
2020/04/12 05:35:50;;;;;;;6.4;5.8;;;;;;;8.39;69.65332;95451.78;;;;
2020/04/12 05:36:51;;;;;;;6.4;5.8;;;;;;;8.39;69.65332;95451.78;;;;
2020/04/12 05:37:51;;;;;;;6.4;5.8;;;;;;;8.39;69.65332;95451.78;;;;
2020/04/12 05:38:51;;;;;;;6.25;5.450001;;;;;;;8.72;69.06641;95446.98;;;;
2020/04/12 05:39:52;;;;;;;6.25;5.450001;;;;;;;8.72;69.06641;95446.98;;;;
2020/04/12 05:40:52;;;;;;;6.25;5.450001;;;;;;;8.72;69.06641;95446.98;;;;
2020/04/12 05:41:53;;;;;;;6.25;5.450001;;;;;;;8.72;69.06641;95446.98;;;;
2020/04/12 05:42:53;;;;;;;6.25;5.450001;;;;;;;8.72;69.06641;95446.98;;;;
2020/04/12 05:43:54;;;;;;;6.25;5.450001;;;;;;;8.72;69.06641;95446.98;;;;
2020/04/12 05:45:09;;;;;;;6.25;5.450001;;;;;;;8.72;69.06641;95446.98;;;;
2020/04/12 05:46:09;;;;;;;6.25;5.450001;;;;;;;8.72;69.06641;95446.98;;;;
2020/04/12 05:47:10;;;;;;;6.25;5.450001;;;;;;;8.72;69.06641;95446.98;;;;
2020/04/12 05:48:10;;;;;;;6.25;5.450001;;;;;;;8.72;69.06641;95446.98;;;;
2020/04/12 05:49:11;;;;;;;6.25;5.450001;;;;;;;8.72;69.06641;95446.98;;;;